createdAt,value
2023-02-11T00:02:30.359Z,66.71
2023-02-11T00:05:17.166Z,67.19
2023-02-11T00:08:03.999Z,67.05
2023-02-11T00:10:58.246Z,67.44
2023-02-11T00:13:45.689Z,66.98
2023-02-11T00:16:32.926Z,67.21
2023-02-11T00:19:20.366Z,66.81
2023-02-11T00:22:07.772Z,67.31
2023-02-11T00:24:54.843Z,67.37
2023-02-11T00:27:41.661Z,67.71
2023-02-11T00:30:28.514Z,67.28
2023-02-11T00:33:15.290Z,67.33
2023-02-11T00:36:09.518Z,67.47
2023-02-11T00:38:58.017Z,67.33
2023-02-11T00:41:44.801Z,67.37
2023-02-11T00:44:31.605Z,67.51
2023-02-11T00:47:18.383Z,67.15
2023-02-11T00:50:06.198Z,67.42
2023-02-11T00:52:52.936Z,67.28
2023-02-11T00:55:39.727Z,66.99
2023-02-11T00:58:27.040Z,67.40
2023-02-11T01:01:13.860Z,67.18
2023-02-11T01:04:00.757Z,67.36
2023-02-11T01:06:47.774Z,67.61
2023-02-11T01:09:34.567Z,67.04
2023-02-11T01:12:21.457Z,67.47
2023-02-11T01:15:09.324Z,67.19
2023-02-11T01:17:56.121Z,67.09
2023-02-11T01:20:43.003Z,67.65
2023-02-11T01:23:30.948Z,67.30
2023-02-11T01:26:17.754Z,67.31
2023-02-11T01:29:04.656Z,67.09
2023-02-11T01:31:52.376Z,67.62
2023-02-11T01:34:39.221Z,67.27
2023-02-11T01:37:26.198Z,67.46
2023-02-11T01:40:16.187Z,67.26
2023-02-11T01:43:02.968Z,67.51
2023-02-11T01:45:58.774Z,67.80
2023-02-11T01:48:48.916Z,67.78
2023-02-11T01:51:44.660Z,67.52
2023-02-11T01:54:55.761Z,67.56
2023-02-11T01:57:46.096Z,67.52
2023-02-11T02:00:37.215Z,67.35
2023-02-11T02:03:24.627Z,67.62
2023-02-11T02:06:27.188Z,67.22
2023-02-11T02:09:21.608Z,67.12
2023-02-11T02:12:08.395Z,67.40
2023-02-11T02:15:31.617Z,67.31
2023-02-11T02:18:55.791Z,67.82
2023-02-11T02:21:51.097Z,67.52
2023-02-11T02:24:44.746Z,67.48
2023-02-11T02:27:50.065Z,67.28
2023-02-11T02:30:53.627Z,67.20
2023-02-11T02:34:09.634Z,67.63
2023-02-11T02:37:03.499Z,67.23
2023-02-11T02:39:50.523Z,67.85
2023-02-11T02:42:38.823Z,67.43
2023-02-11T02:45:25.599Z,67.34
2023-02-11T02:48:29.078Z,67.99
2023-02-11T02:51:44.141Z,68.09
2023-02-11T02:54:52.077Z,67.84
2023-02-11T02:58:14.927Z,67.44
2023-02-11T03:01:28.773Z,67.92
2023-02-11T03:04:39.840Z,67.11
2023-02-11T03:07:48.767Z,67.95
2023-02-11T03:10:42.404Z,68.11
2023-02-11T03:13:34.578Z,68.05
2023-02-11T03:16:26.101Z,67.83
2023-02-11T03:19:16.857Z,67.85
2023-02-11T03:22:06.511Z,68.05
2023-02-11T03:24:53.749Z,67.96
2023-02-11T03:28:11.261Z,67.27
2023-02-11T03:31:10.208Z,67.98
2023-02-11T03:34:16.773Z,67.42
2023-02-11T03:37:08.403Z,67.50
2023-02-11T03:40:00.148Z,68.03
2023-02-11T03:42:53.860Z,67.60
2023-02-11T03:45:40.947Z,67.66
2023-02-11T03:48:37.975Z,67.56
2023-02-11T03:51:25.554Z,67.36
2023-02-11T03:54:15.317Z,67.49
2023-02-11T03:57:02.732Z,68.05
2023-02-11T03:59:54.050Z,67.52
2023-02-11T04:02:41.390Z,67.60
2023-02-11T04:05:28.260Z,68.10
2023-02-11T04:08:15.185Z,67.52
2023-02-11T04:11:02.066Z,67.51
2023-02-11T04:13:48.836Z,67.48
2023-02-11T04:16:35.642Z,67.54
2023-02-11T04:19:22.432Z,68.27
2023-02-11T04:22:09.258Z,67.47
2023-02-11T04:24:56.116Z,68.11
2023-02-11T04:27:42.896Z,68.08
2023-02-11T04:30:29.683Z,68.18
2023-02-11T04:33:16.761Z,67.92
2023-02-11T04:36:03.790Z,68.12
2023-02-11T04:38:50.565Z,67.92
2023-02-11T04:41:37.343Z,68.15
2023-02-11T04:44:24.119Z,68.10
2023-02-11T04:47:12.723Z,68.30
2023-02-11T04:49:59.572Z,67.93
2023-02-11T04:52:46.458Z,68.31
2023-02-11T04:55:33.225Z,68.08
2023-02-11T04:58:20.363Z,68.32
2023-02-11T05:01:08.211Z,68.12
2023-02-11T05:03:55.028Z,68.39
2023-02-11T05:06:41.824Z,67.69
2023-02-11T05:09:28.875Z,68.16
2023-02-11T05:12:18.040Z,68.57
2023-02-11T05:15:07.706Z,67.63
2023-02-11T05:17:54.619Z,67.73
2023-02-11T05:20:42.515Z,67.96
2023-02-11T05:23:29.268Z,67.62
2023-02-11T05:26:16.152Z,68.11
2023-02-11T05:29:03.007Z,67.68
2023-02-11T05:31:49.750Z,67.91
2023-02-11T05:34:36.891Z,67.89
2023-02-11T05:37:23.880Z,67.71
2023-02-11T05:40:11.556Z,68.28
2023-02-11T05:42:58.493Z,68.44
2023-02-11T05:45:58.896Z,68.45
2023-02-11T05:48:45.691Z,68.36
2023-02-11T05:51:36.893Z,68.12
2023-02-11T05:54:23.706Z,68.45
2023-02-11T05:57:10.482Z,67.79
2023-02-11T05:59:57.268Z,67.93
2023-02-11T06:02:44.191Z,68.24
2023-02-11T06:05:31.411Z,67.91
2023-02-11T06:08:18.485Z,68.37
2023-02-11T06:11:05.308Z,68.04
2023-02-11T06:13:52.073Z,68.02
2023-02-11T06:16:38.932Z,67.92
2023-02-11T06:19:30.999Z,68.50
2023-02-11T06:22:17.818Z,68.04
2023-02-11T06:25:05.316Z,68.11
2023-02-11T06:27:52.094Z,68.23
2023-02-11T06:30:38.889Z,68.28
2023-02-11T06:33:25.651Z,68.42
2023-02-11T06:36:18.480Z,68.67
2023-02-11T06:39:05.452Z,68.24
2023-02-11T06:41:52.248Z,67.69
2023-02-11T06:44:39.097Z,68.44
2023-02-11T06:47:25.905Z,67.96
2023-02-11T06:50:14.255Z,68.30
2023-02-11T06:53:01.542Z,68.64
2023-02-11T06:55:48.598Z,67.93
2023-02-11T06:58:35.523Z,68.43
2023-02-11T07:01:23.383Z,68.63
2023-02-11T07:04:10.688Z,67.81
2023-02-11T07:06:57.537Z,68.49
2023-02-11T07:09:44.426Z,68.40
2023-02-11T07:12:31.557Z,68.42
2023-02-11T07:15:18.445Z,68.04
2023-02-11T07:18:05.251Z,68.60
2023-02-11T07:20:52.091Z,68.60
2023-02-11T07:23:40.716Z,68.21
2023-02-11T07:26:28.949Z,68.23
2023-02-11T07:29:15.750Z,68.73
2023-02-11T07:32:02.600Z,68.31
2023-02-11T07:34:49.510Z,68.05
2023-02-11T07:37:36.484Z,68.22
2023-02-11T07:40:23.249Z,68.22
2023-02-11T07:43:10.014Z,68.12
2023-02-11T07:45:56.777Z,68.84
2023-02-11T07:48:43.676Z,68.19
2023-02-11T07:51:31.263Z,68.75
2023-02-11T07:54:18.020Z,68.21
2023-02-11T07:57:08.371Z,68.39
2023-02-11T08:00:04.216Z,68.19
2023-02-11T08:02:50.938Z,68.61
2023-02-11T08:05:38.618Z,68.28
2023-02-11T08:08:28.571Z,68.45
2023-02-11T08:11:18.605Z,68.71
2023-02-11T08:14:05.398Z,68.78
2023-02-11T08:16:52.200Z,68.39
2023-02-11T08:19:39.213Z,69.15
2023-02-11T08:22:26.032Z,68.68
2023-02-11T08:25:15.127Z,69.61
2023-02-11T08:28:01.971Z,69.28
2023-02-11T08:30:49.022Z,68.79
2023-02-11T08:33:40.596Z,69.10
2023-02-11T08:36:32.701Z,69.34
2023-02-11T08:39:23.129Z,69.39
2023-02-11T08:42:10.078Z,68.91
2023-02-11T08:44:59.455Z,69.00
2023-02-11T08:47:46.086Z,69.29
2023-02-11T08:50:32.857Z,69.07
2023-02-11T08:53:19.675Z,69.21
2023-02-11T08:56:06.932Z,69.22
2023-02-11T08:58:57.027Z,69.09
2023-02-11T09:01:44.362Z,69.79
2023-02-11T09:04:31.359Z,68.81
2023-02-11T09:07:18.178Z,69.65
2023-02-11T09:10:06.306Z,69.50
2023-02-11T09:12:53.119Z,69.32
2023-02-11T09:15:39.946Z,69.32
2023-02-11T09:18:26.986Z,69.15
2023-02-11T09:21:20.338Z,69.74
2023-02-11T09:24:07.260Z,69.45
2023-02-11T09:26:58.532Z,69.77
2023-02-11T09:29:48.592Z,69.86
2023-02-11T09:32:35.838Z,69.50
2023-02-11T09:35:22.634Z,70.10
2023-02-11T09:38:09.673Z,69.46
2023-02-11T09:40:56.434Z,69.98
2023-02-11T09:43:46.560Z,69.47
2023-02-11T09:46:44.517Z,69.77
2023-02-11T09:49:43.689Z,69.52
2023-02-11T09:52:59.323Z,69.24
2023-02-11T09:55:48.418Z,69.57
2023-02-11T09:58:36.860Z,69.43
2023-02-11T10:01:57.006Z,69.80
2023-02-11T10:05:09.530Z,69.44
2023-02-11T10:08:16.571Z,69.29
2023-02-11T10:11:22.637Z,69.82
2023-02-11T10:14:47.124Z,69.95
2023-02-11T10:17:55.435Z,69.73
2023-02-11T10:20:50.087Z,69.65
2023-02-11T10:23:40.873Z,69.55
2023-02-11T10:26:30.915Z,70.16
2023-02-11T10:29:40.745Z,70.02
2023-02-11T10:32:30.247Z,70.37
2023-02-11T10:35:23.966Z,70.19
2023-02-11T10:38:11.413Z,70.19
2023-02-11T10:40:58.173Z,69.90
2023-02-11T10:43:48.206Z,70.22
2023-02-11T10:46:40.179Z,70.07
2023-02-11T10:49:38.603Z,70.13
2023-02-11T10:52:28.420Z,70.42
2023-02-11T10:55:18.074Z,70.48
2023-02-11T10:58:04.901Z,70.57
2023-02-11T11:00:53.887Z,71.06
2023-02-11T11:03:47.815Z,70.89
2023-02-11T11:06:35.237Z,70.77
2023-02-11T11:09:28.971Z,70.86
2023-02-11T11:12:26.140Z,70.85
2023-02-11T11:15:18.160Z,70.54
2023-02-11T11:18:31.478Z,70.69
2023-02-11T11:21:27.989Z,70.40
2023-02-11T11:24:20.867Z,70.59
2023-02-11T11:27:15.942Z,70.43
2023-02-11T11:30:03.353Z,70.30
2023-02-11T11:32:50.154Z,70.45
2023-02-11T11:35:37.003Z,70.30
2023-02-11T11:38:24.613Z,70.71
2023-02-11T11:41:21.522Z,70.08
2023-02-11T11:44:28.116Z,70.54
2023-02-11T11:47:20.688Z,70.62
2023-02-11T11:50:22.530Z,70.31
2023-02-11T11:53:18.723Z,70.14
2023-02-11T11:56:09.540Z,70.47
2023-02-11T11:59:03.769Z,70.06
2023-02-11T12:02:21.521Z,69.96
2023-02-11T12:05:59.209Z,70.82
2023-02-11T12:09:08.799Z,71.06
2023-02-11T12:11:58.931Z,71.16
2023-02-11T12:14:57.813Z,70.98
2023-02-11T12:18:22.006Z,70.90
2023-02-11T12:21:20.623Z,71.00
2023-02-11T12:24:45.814Z,70.78
2023-02-11T12:27:45.177Z,70.77
2023-02-11T12:30:51.239Z,71.39
2023-02-11T12:33:44.762Z,70.65
2023-02-11T12:37:09.250Z,71.68
2023-02-11T12:40:14.066Z,70.97
2023-02-11T12:43:16.565Z,71.55
2023-02-11T12:46:39.476Z,71.44
2023-02-11T12:49:58.713Z,71.16
2023-02-11T12:53:25.708Z,71.15
2023-02-11T12:56:50.937Z,71.18
2023-02-11T13:00:42.391Z,71.40
2023-02-11T13:04:06.354Z,70.90
2023-02-11T13:07:57.299Z,70.98
2023-02-11T13:14:15.588Z,70.77
2023-02-11T13:17:09.030Z,71.40
2023-02-11T13:20:06.549Z,70.99
2023-02-11T13:23:04.666Z,71.19
2023-02-11T13:26:06.100Z,71.29
2023-02-11T13:29:21.797Z,70.53
2023-02-11T13:32:20.426Z,71.44
2023-02-11T13:35:30.922Z,70.99
2023-02-11T13:38:24.115Z,70.55
2023-02-11T13:41:24.776Z,70.84
2023-02-11T13:44:11.645Z,71.28
2023-02-11T13:47:10.296Z,71.12
2023-02-11T13:50:04.043Z,71.44
2023-02-11T13:53:03.356Z,70.93
2023-02-11T13:56:00.518Z,70.76
2023-02-11T13:58:51.413Z,71.24
2023-02-11T14:02:07.432Z,71.16
2023-02-11T14:05:22.370Z,71.21
2023-02-11T14:08:47.366Z,71.71
2023-02-11T14:22:40.661Z,71.22
2023-02-11T14:25:32.305Z,71.61
2023-02-11T14:28:24.619Z,71.33
2023-02-11T14:31:21.423Z,71.76
2023-02-11T14:34:24.799Z,72.76
2023-02-11T14:37:22.572Z,72.93
2023-02-11T14:40:29.809Z,73.00
2023-02-11T14:43:20.183Z,72.97
2023-02-11T14:46:07.081Z,73.90
2023-02-11T14:48:58.390Z,73.89
2023-02-11T14:51:45.162Z,73.76
2023-02-11T14:54:33.304Z,73.63
2023-02-11T14:57:22.387Z,74.17
2023-02-11T15:00:17.658Z,73.32
2023-02-11T15:03:07.264Z,73.73
2023-02-11T15:05:56.921Z,73.45
2023-02-11T15:08:47.298Z,73.90
2023-02-11T15:11:39.713Z,74.12
2023-02-11T15:14:32.369Z,73.96
2023-02-11T15:17:24.686Z,73.66
2023-02-11T15:20:24.666Z,73.73
2023-02-11T15:23:20.549Z,73.44
2023-02-11T15:26:15.217Z,73.57
2023-02-11T15:29:01.983Z,73.92
2023-02-11T15:32:03.493Z,73.48
2023-02-11T15:34:52.610Z,73.21
2023-02-11T15:37:39.895Z,73.39
2023-02-11T15:40:32.972Z,72.87
2023-02-11T15:43:19.761Z,72.77
2023-02-11T15:46:06.797Z,72.58
2023-02-11T15:48:54.826Z,72.71
2023-02-11T15:51:45.462Z,73.10
2023-02-11T15:54:32.497Z,72.98
2023-02-11T15:57:20.222Z,72.85
2023-02-11T16:00:08.119Z,72.91
2023-02-11T16:02:54.933Z,72.30
2023-02-11T16:05:41.750Z,72.87
2023-02-11T16:08:29.901Z,72.43
2023-02-11T16:11:31.097Z,72.62
2023-02-11T16:14:23.948Z,72.54
2023-02-11T16:17:13.230Z,72.17
2023-02-11T16:19:59.892Z,72.14
2023-02-11T16:22:47.143Z,72.35
2023-02-11T16:25:37.475Z,72.40
2023-02-11T16:28:25.729Z,72.02
2023-02-11T16:31:13.269Z,72.26
2023-02-11T16:34:00.112Z,72.10
2023-02-11T16:36:47.724Z,72.49
2023-02-11T16:39:34.618Z,72.36
2023-02-11T16:42:23.410Z,72.04
2023-02-11T16:45:18.767Z,72.43
2023-02-11T16:48:17.103Z,72.25
2023-02-11T16:51:09.356Z,72.24
2023-02-11T16:53:56.184Z,72.50
2023-02-11T16:56:44.063Z,72.14
2023-02-11T16:59:30.880Z,72.10
2023-02-11T17:02:24.297Z,71.84
2023-02-11T17:05:22.934Z,72.26
2023-02-11T17:08:13.080Z,72.01
2023-02-11T17:11:05.312Z,72.36
2023-02-11T17:13:52.108Z,72.19
2023-02-11T17:16:39.168Z,72.14
2023-02-11T17:19:31.162Z,72.65
2023-02-11T17:22:18.671Z,72.82
2023-02-11T17:25:06.590Z,72.48
2023-02-11T17:27:53.735Z,72.81
2023-02-11T17:30:44.722Z,73.09
2023-02-11T17:33:31.794Z,72.55
2023-02-11T17:36:19.496Z,72.89
2023-02-11T17:39:08.259Z,72.65
2023-02-11T17:41:55.202Z,72.69
2023-02-11T17:44:46.431Z,72.46
2023-02-11T17:47:36.390Z,72.74
2023-02-11T17:50:23.210Z,72.94
2023-02-11T17:53:12.416Z,72.91
2023-02-11T17:56:11.247Z,72.64
2023-02-11T17:59:02.492Z,72.56
2023-02-11T18:01:49.282Z,72.75
2023-02-11T18:04:36.520Z,72.39
2023-02-11T18:07:23.428Z,72.57
2023-02-11T18:10:10.719Z,72.59
2023-02-11T18:12:57.464Z,72.75
2023-02-11T18:15:44.349Z,72.58
2023-02-11T18:18:31.262Z,72.52
2023-02-11T18:21:19.888Z,72.52
2023-02-11T18:24:07.308Z,72.52
2023-02-11T18:26:54.147Z,72.54
2023-02-11T18:29:40.880Z,72.46
2023-02-11T18:32:30.791Z,72.58
2023-02-11T18:35:17.592Z,72.67
2023-02-11T18:38:04.387Z,72.63
2023-02-11T18:40:52.335Z,72.50
2023-02-11T18:43:40.005Z,72.89
2023-02-11T18:46:26.829Z,72.70
2023-02-11T18:49:14.543Z,73.02
2023-02-11T18:52:01.298Z,73.06
2023-02-11T18:54:51.332Z,72.26
2023-02-11T18:57:38.085Z,72.57
2023-02-11T19:00:26.984Z,72.34
2023-02-11T19:03:14.088Z,72.91
2023-02-11T19:06:00.853Z,72.93
2023-02-11T19:08:47.939Z,72.61
2023-02-11T19:11:54.309Z,72.56
2023-02-11T19:14:41.409Z,72.57
2023-02-11T19:17:28.154Z,72.55
2023-02-11T19:20:15.012Z,72.42
2023-02-11T19:23:01.823Z,72.68
2023-02-11T19:25:48.817Z,72.53
2023-02-11T19:28:37.064Z,72.84
2023-02-11T19:31:24.109Z,72.28
2023-02-11T19:34:14.064Z,72.76
2023-02-11T19:37:01.602Z,72.86
2023-02-11T19:39:51.552Z,72.71
2023-02-11T19:42:38.733Z,72.49
2023-02-11T19:45:26.862Z,72.89
2023-02-11T19:48:13.586Z,72.78
2023-02-11T19:51:07.936Z,72.45
2023-02-11T19:53:54.718Z,72.53
2023-02-11T19:56:41.614Z,72.51
2023-02-11T19:59:28.406Z,72.55
2023-02-11T20:02:18.901Z,72.44
2023-02-11T20:05:06.338Z,72.68
2023-02-11T20:07:53.098Z,72.55
2023-02-11T20:10:40.376Z,72.67
2023-02-11T20:13:27.939Z,72.52
2023-02-11T20:16:17.226Z,72.48
2023-02-11T20:19:03.981Z,72.64
2023-02-11T20:21:55.629Z,72.56
2023-02-11T20:24:50.503Z,72.54
2023-02-11T20:27:37.720Z,72.55
2023-02-11T20:30:24.842Z,72.64
2023-02-11T20:33:11.642Z,72.93
2023-02-11T20:36:04.481Z,72.75
2023-02-11T20:38:51.613Z,72.68
2023-02-11T20:41:39.970Z,72.77
2023-02-11T20:44:27.358Z,72.81
2023-02-11T20:47:14.274Z,72.66
2023-02-11T20:50:01.168Z,72.73
2023-02-11T20:52:48.536Z,72.16
2023-02-11T20:55:37.897Z,72.72
2023-02-11T20:58:30.936Z,72.69
2023-02-11T21:01:20.722Z,72.82
2023-02-11T21:04:12.994Z,72.37
2023-02-11T21:07:01.616Z,72.44
2023-02-11T21:09:49.324Z,72.22
2023-02-11T21:12:38.878Z,72.44
2023-02-11T21:15:25.714Z,72.45
2023-02-11T21:18:13.271Z,72.36
2023-02-11T21:21:00.175Z,72.87
2023-02-11T21:23:47.621Z,72.56
2023-02-11T21:26:35.533Z,72.86
2023-02-11T21:29:22.283Z,72.64
2023-02-11T21:32:09.081Z,72.62
2023-02-11T21:34:55.976Z,72.74
2023-02-11T21:37:42.742Z,72.34
2023-02-11T21:40:38.688Z,72.53
2023-02-11T21:43:25.541Z,72.45
2023-02-11T21:46:14.477Z,72.26
2023-02-11T21:49:01.506Z,72.33
2023-02-11T21:51:48.390Z,72.71
2023-02-11T21:54:35.178Z,72.39
2023-02-11T21:57:21.922Z,72.40
2023-02-11T22:00:09.832Z,72.23
2023-02-11T22:02:56.718Z,72.44
2023-02-11T22:05:46.571Z,72.29
2023-02-11T22:08:34.805Z,72.34
2023-02-11T22:11:21.641Z,72.51
2023-02-11T22:14:08.546Z,72.09
2023-02-11T22:16:55.375Z,72.07
2023-02-11T22:19:42.205Z,72.58
2023-02-11T22:22:29.347Z,72.31
2023-02-11T22:25:19.355Z,72.39
2023-02-11T22:28:06.265Z,72.21
2023-02-11T22:30:55.289Z,72.42
2023-02-11T22:33:42.722Z,72.46
2023-02-11T22:36:31.794Z,72.46
2023-02-11T22:39:21.093Z,72.30
2023-02-11T22:42:07.859Z,72.24
2023-02-11T22:44:54.750Z,72.34
2023-02-11T22:47:41.609Z,72.19
2023-02-11T22:50:28.408Z,72.29
2023-02-11T22:53:15.171Z,72.25
2023-02-11T22:56:05.632Z,72.67
2023-02-11T22:58:53.652Z,72.56
2023-02-11T23:01:40.674Z,72.31
2023-02-11T23:04:27.518Z,72.31
2023-02-11T23:07:22.057Z,72.46
2023-02-11T23:10:09.901Z,72.33
2023-02-11T23:12:56.696Z,72.49
2023-02-11T23:15:45.174Z,72.16
2023-02-11T23:18:32.175Z,72.48
2023-02-11T23:21:21.890Z,72.11
2023-02-11T23:24:12.260Z,72.50
2023-02-11T23:26:59.109Z,72.10
2023-02-11T23:29:45.879Z,72.12
2023-02-11T23:32:32.813Z,72.09
2023-02-11T23:35:23.159Z,72.46
2023-02-11T23:38:13.496Z,72.20
2023-02-11T23:41:07.444Z,72.48
2023-02-11T23:43:56.304Z,72.34
2023-02-11T23:47:06.299Z,72.47
2023-02-11T23:49:54.228Z,72.67
2023-02-11T23:52:44.119Z,72.43
2023-02-11T23:55:31.007Z,72.49
2023-02-11T23:58:17.957Z,72.35
